Time;durP1;ratioP1;P1;durP2;ratioP2;P2;SDS_P1;SDS_P2;PMS_P1;PMS_P2;Temp;Humidity;BMP_temperature;BMP_pressure;BME280_temperature;BME280_humidity;BME280_pressure;Samples;Min_cycle;Max_cycle;Signal;HPM_P1;HPM_P2
2023/05/15 00:00:05;;;;;;;28.38;14.95;;;;;;;9.29;100.00;101590.25;4978282;28;20041;-74
2023/05/15 00:02:49;;;;;;;25.73;14.02;;;;;;;9.28;100.00;101582.38;4980504;28;20115;-74
2023/05/15 00:05:39;;;;;;;27.00;14.77;;;;;;;9.25;100.00;101583.31;4978438;28;20265;-74
2023/05/15 00:08:24;;;;;;;27.75;13.85;;;;;;;9.26;100.00;101584.19;4978084;28;20061;-74
2023/05/15 00:11:08;;;;;;;30.95;14.35;;;;;;;9.25;100.00;101585.97;4978386;28;20049;-74
2023/05/15 00:13:53;;;;;;;25.02;14.07;;;;;;;9.27;100.00;101583.28;4976581;28;20057;-74
2023/05/15 00:16:37;;;;;;;29.25;14.73;;;;;;;9.28;100.00;101567.41;4975282;28;20116;-74
2023/05/15 00:19:21;;;;;;;27.85;13.88;;;;;;;9.28;100.00;101569.16;4980234;28;20053;-74
2023/05/15 00:22:06;;;;;;;25.90;13.05;;;;;;;9.28;100.00;101567.41;4973804;28;20190;-74
2023/05/15 00:24:50;;;;;;;28.25;13.63;;;;;;;9.27;100.00;101570.94;4978442;28;20539;-74
2023/05/15 00:27:35;;;;;;;25.05;12.82;;;;;;;9.26;100.00;101563.91;4991544;28;20032;-74
2023/05/15 00:30:20;;;;;;;25.45;13.55;;;;;;;9.28;100.00;101558.59;4978855;28;20069;-74
2023/05/15 00:33:04;;;;;;;29.17;14.55;;;;;;;9.30;100.00;101560.28;4980414;28;20200;-74
2023/05/15 00:35:48;;;;;;;26.13;13.77;;;;;;;9.30;100.00;101549.72;4977958;28;20586;-74
2023/05/15 00:38:32;;;;;;;29.20;13.88;;;;;;;9.29;100.00;101550.63;4978931;28;20049;-74
2023/05/15 00:41:17;;;;;;;25.35;14.13;;;;;;;9.27;100.00;101552.47;4977317;28;20048;-74
2023/05/15 00:44:02;;;;;;;26.48;14.00;;;;;;;9.25;100.00;101546.31;4990321;28;20619;-74
2023/05/15 00:46:46;;;;;;;28.30;13.65;;;;;;;9.21;100.00;101545.56;4976387;28;20124;-74
2023/05/15 00:49:34;;;;;;;27.85;13.82;;;;;;;9.24;100.00;101539.31;4979120;28;20435;-74
2023/05/15 00:52:19;;;;;;;27.08;13.80;;;;;;;9.20;100.00;101540.31;4977380;28;20077;-74
2023/05/15 00:55:05;;;;;;;31.13;14.75;;;;;;;9.15;100.00;101527.22;4987661;28;20515;-74
2023/05/15 00:57:50;;;;;;;28.27;14.13;;;;;;;9.15;100.00;101526.38;4977044;28;20414;-74
2023/05/15 01:00:34;;;;;;;27.92;13.25;;;;;;;9.12;100.00;101527.31;4977646;28;21124;-74
2023/05/15 01:03:19;;;;;;;31.88;14.57;;;;;;;9.14;100.00;101527.28;4975795;28;20100;-74
2023/05/15 01:06:03;;;;;;;26.42;13.88;;;;;;;9.12;100.00;101523.81;4978445;28;20143;-74
2023/05/15 01:08:48;;;;;;;26.73;13.82;;;;;;;9.05;100.00;101517.84;4974507;28;20116;-74
2023/05/15 01:11:35;;;;;;;35.63;14.60;;;;;;;9.01;100.00;101508.25;4973420;28;20054;-74
2023/05/15 01:14:19;;;;;;;29.75;15.25;;;;;;;8.95;100.00;101504.88;4961348;28;20058;-74
2023/05/15 01:17:03;;;;;;;28.52;15.15;;;;;;;8.95;100.00;101504.88;4976561;28;20052;-74
2023/05/15 01:19:49;;;;;;;31.90;14.73;;;;;;;8.93;100.00;101514.63;4975117;28;20621;-74
2023/05/15 01:22:41;;;;;;;30.77;14.90;;;;;;;8.96;100.00;101524.25;4981451;28;20565;-74
2023/05/15 01:25:47;;;;;;;33.65;16.00;;;;;;;8.93;100.00;101532.28;4980456;28;20319;-75
2023/05/15 01:28:38;;;;;;;30.13;15.60;;;;;;;8.92;100.00;101533.16;4978898;28;20075;-73
2023/05/15 01:31:23;;;;;;;30.50;14.00;;;;;;;8.90;100.00;101527.06;4981653;28;20631;-73
2023/05/15 01:34:08;;;;;;;30.33;15.20;;;;;;;8.90;100.00;101520.00;4981679;28;20036;-74
2023/05/15 01:36:56;;;;;;;28.33;14.38;;;;;;;8.87;100.00;101513.94;4977328;28;20552;-73
2023/05/15 01:39:41;;;;;;;27.10;14.38;;;;;;;8.85;100.00;101513.09;4982586;28;20045;-75
2023/05/15 01:42:30;;;;;;;31.73;15.02;;;;;;;8.81;100.00;101500.00;4978864;28;20224;-73
2023/05/15 01:45:15;;;;;;;28.83;14.27;;;;;;;8.80;100.00;101500.91;4979737;28;20052;-73
2023/05/15 01:48:00;;;;;;;26.30;13.52;;;;;;;8.81;100.00;101497.38;4981216;28;20077;-74
2023/05/15 01:50:44;;;;;;;25.25;13.82;;;;;;;8.82;100.00;101499.09;4972379;28;20065;-73
2023/05/15 01:53:34;;;;;;;28.23;13.50;;;;;;;8.85;100.00;101494.63;4976639;28;20048;-73
2023/05/15 01:56:20;;;;;;;25.73;12.13;;;;;;;8.88;100.00;101510.41;4981536;28;20214;-73
2023/05/15 01:59:04;;;;;;;23.48;11.93;;;;;;;8.88;100.00;101505.13;4980264;28;20137;-74
2023/05/15 02:01:49;;;;;;;24.00;11.98;;;;;;;8.89;100.00;101512.97;4978561;28;20343;-73
2023/05/15 02:04:34;;;;;;;26.20;11.90;;;;;;;8.90;100.00;101512.09;4977786;28;20558;-73
2023/05/15 02:07:28;;;;;;;25.75;11.98;;;;;;;8.90;100.00;101516.50;4990656;28;20053;-73
2023/05/15 02:10:12;;;;;;;27.08;13.38;;;;;;;8.88;100.00;101508.59;4976611;28;20681;-74
2023/05/15 02:12:57;;;;;;;25.73;12.68;;;;;;;8.88;100.00;101508.59;4975895;28;20064;-74
2023/05/15 02:15:42;;;;;;;22.48;11.98;;;;;;;8.89;100.00;101510.34;4974431;28;21021;-74
2023/05/15 02:18:27;;;;;;;25.10;12.40;;;;;;;8.90;100.00;101505.94;4978960;28;20236;-73
2023/05/15 02:21:11;;;;;;;23.65;12.10;;;;;;;8.94;100.00;101510.22;4978784;28;20089;-73
2023/05/15 02:23:55;;;;;;;24.30;12.38;;;;;;;8.95;100.00;101506.69;4962990;28;20536;-74
2023/05/15 02:26:49;;;;;;;28.33;12.38;;;;;;;8.97;100.00;101510.13;4976991;28;21570;-74
2023/05/15 02:29:43;;;;;;;24.95;12.05;;;;;;;8.98;100.00;101500.44;4993500;28;20105;-73
2023/05/15 02:32:32;;;;;;;21.98;12.52;;;;;;;8.98;100.00;101505.72;4977790;28;20134;-73
2023/05/15 02:35:22;;;;;;;22.80;11.48;;;;;;;8.96;100.00;101504.00;4991984;28;20181;-73
2023/05/15 02:38:10;;;;;;;20.85;11.65;;;;;;;8.95;100.00;101511.97;4977255;28;20044;-74
2023/05/15 02:40:55;;;;;;;27.00;12.25;;;;;;;8.92;100.00;101504.97;4976429;28;20501;-74
2023/05/15 02:43:40;;;;;;;23.08;12.73;;;;;;;8.89;100.00;101501.56;4976675;28;20057;-74
2023/05/15 02:46:27;;;;;;;21.23;12.00;;;;;;;8.85;100.00;101497.25;4977888;28;20496;-74
2023/05/15 02:49:12;;;;;;;22.98;12.23;;;;;;;8.80;100.00;101500.91;4973897;28;20056;-74
2023/05/15 02:51:56;;;;;;;28.10;13.55;;;;;;;8.78;100.00;101500.06;4990188;28;20049;-74
2023/05/15 02:54:40;;;;;;;26.70;13.23;;;;;;;8.75;100.00;101509.84;4977015;28;20126;-74
2023/05/15 02:57:25;;;;;;;24.38;12.30;;;;;;;8.71;100.00;101492.38;4986120;28;20140;-74
2023/05/15 03:00:10;;;;;;;26.70;13.43;;;;;;;8.69;100.00;101500.31;4979638;28;20053;-73
2023/05/15 03:02:55;;;;;;;23.80;13.07;;;;;;;8.66;100.00;101489.88;4977755;28;20048;-73
2023/05/15 03:05:39;;;;;;;22.92;11.55;;;;;;;8.62;100.00;101494.38;4974050;28;20555;-73
2023/05/15 03:08:23;;;;;;;23.92;12.52;;;;;;;8.58;100.00;101495.34;4977387;28;20045;-73
2023/05/15 03:11:07;;;;;;;23.63;13.38;;;;;;;8.52;100.00;101487.59;4977978;28;20433;-74
2023/05/15 03:13:51;;;;;;;24.60;13.05;;;;;;;8.49;100.00;101496.41;4971786;28;20685;-73
2023/05/15 03:16:37;;;;;;;24.55;12.70;;;;;;;8.42;100.00;101494.84;4977666;28;20053;-74
2023/05/15 03:19:21;;;;;;;25.08;13.05;;;;;;;8.38;100.00;101485.25;4977040;28;20538;-73
2023/05/15 03:22:06;;;;;;;24.63;12.98;;;;;;;8.36;100.00;101487.09;4977055;28;20049;-73
2023/05/15 03:24:51;;;;;;;25.65;13.35;;;;;;;8.32;100.00;101491.56;4979073;28;20148;-73
2023/05/15 03:27:45;;;;;;;26.38;13.35;;;;;;;8.28;100.00;101484.63;4977172;28;20204;-73
2023/05/15 03:30:29;;;;;;;23.50;12.80;;;;;;;8.27;100.00;101488.19;4977457;28;20501;-73
2023/05/15 03:33:13;;;;;;;27.33;13.52;;;;;;;8.24;100.00;101485.63;4977939;28;20072;-73
2023/05/15 03:35:57;;;;;;;25.77;13.80;;;;;;;8.20;100.00;101481.31;4978210;28;20133;-73
2023/05/15 03:38:43;;;;;;;26.88;13.48;;;;;;;8.20;100.00;101479.56;4981611;28;20181;-73
2023/05/15 03:41:27;;;;;;;27.38;14.10;;;;;;;8.18;100.00;101489.31;4975048;28;20061;-73
2023/05/15 03:44:11;;;;;;;25.60;14.05;;;;;;;8.18;100.00;101484.03;4972155;28;20057;-73
2023/05/15 03:46:55;;;;;;;26.65;14.18;;;;;;;8.21;100.00;101488.34;4976434;28;20150;-74
2023/05/15 03:49:40;;;;;;;25.33;13.93;;;;;;;8.22;100.00;101490.94;4977487;28;20089;-74
2023/05/15 03:52:25;;;;;;;26.98;13.45;;;;;;;8.21;100.00;101489.22;4984428;28;20143;-74
2023/05/15 03:55:09;;;;;;;27.20;14.65;;;;;;;8.22;100.00;101480.38;4988210;28;20255;-74
2023/05/15 03:57:53;;;;;;;28.42;13.65;;;;;;;8.22;100.00;101474.25;4976072;28;20078;-74
2023/05/15 04:00:37;;;;;;;22.25;12.95;;;;;;;8.23;100.00;101478.63;4972592;28;20108;-74
2023/05/15 04:03:22;;;;;;;24.63;13.43;;;;;;;8.23;100.00;101470.72;4982052;28;20095;-73
2023/05/15 04:06:09;;;;;;;30.67;14.48;;;;;;;8.23;100.00;101461.00;4977346;28;20048;-73
2023/05/15 04:08:53;;;;;;;28.60;13.95;;;;;;;8.23;100.00;101468.91;4973776;28;20049;-74
2023/05/15 04:11:37;;;;;;;28.42;13.77;;;;;;;8.23;100.00;101466.28;4976880;28;20068;-73
2023/05/15 04:14:21;;;;;;;26.85;13.20;;;;;;;8.26;100.00;101470.63;4976356;28;20512;-73
2023/05/15 04:17:05;;;;;;;28.63;13.38;;;;;;;8.28;100.00;101466.16;4976114;28;20164;-73
2023/05/15 04:19:49;;;;;;;30.80;14.45;;;;;;;8.28;100.00;101453.84;4988179;28;20405;-73
2023/05/15 04:22:33;;;;;;;27.70;14.05;;;;;;;8.33;100.00;101450.25;4977672;28;20108;-73
2023/05/15 04:25:19;;;;;;;29.02;14.50;;;;;;;8.35;100.00;101458.97;4973182;28;20173;-73
2023/05/15 04:28:03;;;;;;;27.67;13.60;;;;;;;8.41;100.00;101461.44;4976754;28;20601;-74
2023/05/15 04:30:47;;;;;;;27.13;13.63;;;;;;;8.44;100.00;101461.34;4976939;28;20669;-74
2023/05/15 04:33:32;;;;;;;29.83;14.77;;;;;;;8.49;100.00;101466.53;4973438;28;20184;-73
2023/05/15 04:36:16;;;;;;;30.17;14.52;;;;;;;8.55;100.00;101466.38;4976928;28;20559;-74
2023/05/15 04:39:00;;;;;;;31.00;14.90;;;;;;;8.60;100.00;101474.19;4977522;28;20056;-73
2023/05/15 04:41:46;;;;;;;29.08;14.20;;;;;;;8.64;100.00;101481.09;4976611;28;20611;-74
2023/05/15 04:44:32;;;;;;;29.92;15.88;;;;;;;8.66;100.00;101482.78;4976135;28;20052;-74
2023/05/15 04:47:17;;;;;;;30.13;14.00;;;;;;;8.69;100.00;101476.56;4974769;28;20036;-74
2023/05/15 04:50:01;;;;;;;33.58;15.32;;;;;;;8.73;100.00;101490.56;4977181;28;20088;-74
2023/05/15 04:52:46;;;;;;;31.40;15.02;;;;;;;8.73;100.00;101488.78;4976843;28;20048;-74
2023/05/15 04:55:30;;;;;;;30.65;14.40;;;;;;;8.74;100.00;101492.28;4974638;28;20125;-74
2023/05/15 04:58:14;;;;;;;25.80;14.00;;;;;;;8.76;100.00;101496.63;4980397;28;20100;-74
2023/05/15 05:00:59;;;;;;;26.25;13.32;;;;;;;8.78;100.00;101500.06;4981487;28;20108;-73
2023/05/15 05:03:45;;;;;;;23.98;12.80;;;;;;;8.81;100.00;101494.72;4979659;28;20123;-73
2023/05/15 05:06:29;;;;;;;28.20;13.65;;;;;;;8.82;100.00;101493.81;4981893;28;20065;-74
2023/05/15 05:09:14;;;;;;;26.17;13.95;;;;;;;8.86;100.00;101491.94;4980487;28;20357;-74
2023/05/15 05:11:59;;;;;;;29.63;14.48;;;;;;;8.88;100.00;101494.56;4975846;28;20548;-74
2023/05/15 05:14:43;;;;;;;30.33;14.77;;;;;;;8.91;100.00;101491.81;4992591;28;20033;-74
2023/05/15 05:17:31;;;;;;;26.27;13.60;;;;;;;8.96;100.00;101484.63;4980415;28;20073;-74
2023/05/15 05:20:16;;;;;;;27.35;13.77;;;;;;;9.02;100.00;101489.75;4974536;28;20049;-74
2023/05/15 05:23:00;;;;;;;26.02;13.93;;;;;;;9.09;100.00;101493.94;4980477;28;20532;-73
2023/05/15 05:25:44;;;;;;;25.58;13.98;;;;;;;9.16;100.00;101489.31;4982060;28;20520;-73
2023/05/15 05:28:28;;;;;;;28.60;14.23;;;;;;;9.25;100.00;101493.47;4978212;28;20285;-74
2023/05/15 05:31:15;;;;;;;25.98;14.15;;;;;;;9.34;100.00;101489.72;4979442;28;20068;-74
2023/05/15 05:33:59;;;;;;;26.50;13.55;;;;;;;9.40;100.00;101494.81;4980188;28;20104;-74
2023/05/15 05:36:43;;;;;;;23.08;13.25;;;;;;;9.45;100.00;101489.38;4977340;28;20721;-74
2023/05/15 05:39:27;;;;;;;23.25;12.77;;;;;;;9.52;100.00;101493.56;4979852;28;20060;-74
2023/05/15 05:42:11;;;;;;;25.52;13.77;;;;;;;9.60;100.00;101493.34;4989316;28;20548;-75
2023/05/15 05:44:55;;;;;;;22.92;12.75;;;;;;;9.69;100.00;101493.03;4976201;28;20740;-74
2023/05/15 05:47:40;;;;;;;26.67;14.10;;;;;;;9.78;100.00;101491.91;4979435;28;21558;-74
2023/05/15 05:50:24;;;;;;;22.58;13.65;;;;;;;9.88;100.00;101496.00;4977588;28;20053;-74
2023/05/15 05:53:08;;;;;;;21.30;12.48;;;;;;;9.97;100.00;101492.16;4978345;28;20567;-74
2023/05/15 05:55:53;;;;;;;23.55;13.55;;;;;;;10.08;100.00;101502.38;4980970;28;20052;-75
2023/05/15 05:58:37;;;;;;;24.38;14.18;;;;;;;10.18;100.00;101500.31;4978737;28;20500;-74
2023/05/15 06:01:21;;;;;;;25.45;14.32;;;;;;;10.26;100.00;101497.41;4978303;28;20085;-74
2023/05/15 06:04:05;;;;;;;21.55;13.43;;;;;;;10.32;100.00;101492.78;4979613;28;20558;-74
2023/05/15 06:06:49;;;;;;;23.25;13.30;;;;;;;10.40;100.00;101497.81;4982015;28;20049;-75
2023/05/15 06:09:33;;;;;;;25.02;13.68;;;;;;;10.43;100.00;101494.22;4977108;28;20161;-74
2023/05/15 06:12:18;;;;;;;22.45;13.23;;;;;;;10.39;100.00;101498.72;4991376;28;20677;-75
2023/05/15 06:15:05;;;;;;;23.77;14.27;;;;;;;10.39;100.00;101493.44;4993556;28;20473;-75
2023/05/15 06:17:49;;;;;;;22.20;12.63;;;;;;;10.40;100.00;101497.81;4984133;28;20057;-74
2023/05/15 06:20:37;;;;;;;22.13;14.05;;;;;;;10.41;100.00;101502.16;4979390;28;20053;-75
2023/05/15 06:23:21;;;;;;;22.85;13.43;;;;;;;10.44;100.00;101502.13;4981682;28;20057;-74
2023/05/15 06:26:05;;;;;;;20.80;13.60;;;;;;;10.45;100.00;101502.97;4977507;28;20055;-75
2023/05/15 06:28:50;;;;;;;20.25;13.00;;;;;;;10.42;100.00;101503.94;4967833;28;20064;-74
2023/05/15 06:31:36;;;;;;;18.15;11.77;;;;;;;10.43;100.00;101500.41;4978953;28;20452;-74
2023/05/15 06:34:21;;;;;;;17.15;10.95;;;;;;;10.51;100.00;101501.91;4980775;28;20060;-74
2023/05/15 06:37:05;;;;;;;15.85;11.05;;;;;;;10.55;100.00;101492.91;4976978;28;20049;-74
2023/05/15 06:39:52;;;;;;;16.95;11.13;;;;;;;10.61;100.00;101490.06;4974935;28;20348;-75
2023/05/15 06:42:36;;;;;;;17.83;10.98;;;;;;;10.72;100.00;101495.84;4977139;28;20159;-75
2023/05/15 06:45:20;;;;;;;18.63;10.93;;;;;;;10.85;100.00;101488.31;4977684;28;20151;-74
2023/05/15 06:48:04;;;;;;;14.40;10.15;;;;;;;10.95;100.00;101486.19;4977406;28;21708;-74
2023/05/15 06:50:52;;;;;;;15.38;9.93;;;;;;;11.13;100.00;101489.09;4978402;28;20057;-74
2023/05/15 06:53:39;;;;;;;16.30;9.73;;;;;;;11.15;100.00;101489.88;4977784;28;20153;-74
2023/05/15 06:56:23;;;;;;;14.50;9.93;;;;;;;11.14;100.00;101485.53;4962044;28;20366;-74
2023/05/15 06:59:07;;;;;;;14.80;9.80;;;;;;;11.14;100.00;101481.09;4978363;28;20053;-75
2023/05/15 07:01:51;;;;;;;16.17;9.77;;;;;;;11.16;100.00;101482.81;4979269;28;20546;-75
2023/05/15 07:04:35;;;;;;;15.45;10.02;;;;;;;11.20;100.00;101473.81;4975218;28;20239;-74
2023/05/15 07:07:19;;;;;;;12.98;9.82;;;;;;;11.31;100.00;101476.03;4979031;28;20060;-74
2023/05/15 07:10:04;;;;;;;18.13;10.98;;;;;;;11.38;100.00;101472.22;4990579;28;20049;-75
2023/05/15 07:12:51;;;;;;;16.48;11.18;;;;;;;11.43;100.00;101477.38;4975105;28;20053;-74
2023/05/15 07:15:36;;;;;;;16.90;10.50;;;;;;;11.43;100.00;101470.28;4978870;28;20104;-74
2023/05/15 07:18:20;;;;;;;17.45;11.68;;;;;;;11.47;100.00;101468.38;4977244;28;20059;-74
2023/05/15 07:21:07;;;;;;;15.00;11.10;;;;;;;11.63;100.00;101463.31;4976127;28;20049;-75
2023/05/15 07:23:52;;;;;;;15.60;11.20;;;;;;;11.80;100.00;101468.81;4977474;28;20180;-75
2023/05/15 07:26:39;;;;;;;16.65;11.73;;;;;;;11.97;100.00;101469.91;4978328;28;22123;-75
2023/05/15 07:29:24;;;;;;;17.90;12.25;;;;;;;12.16;100.00;101466.53;4969207;28;20056;-78
2023/05/15 07:32:08;;;;;;;21.60;13.73;;;;;;;12.30;100.00;101458.84;4972852;28;20053;-78
2023/05/15 07:34:52;;;;;;;18.25;11.73;;;;;;;12.50;100.00;101457.94;4971621;28;20049;-78
2023/05/15 07:37:45;;;;;;;19.65;12.75;;;;;;;12.79;100.00;101459.41;4970900;28;20480;-78
2023/05/15 07:40:30;;;;;;;;;;;;;;;13.06;100.00;101467.06;4974260;28;20120;-78
2023/05/15 07:43:17;;;;;;;18.88;12.13;;;;;;;13.28;100.00;101469.56;4977700;28;20412;-79
2023/05/15 07:46:01;;;;;;;17.17;12.27;;;;;;;13.36;100.00;101464.75;4977052;28;20052;-79
2023/05/15 07:48:45;;;;;;;15.95;11.57;;;;;;;13.37;100.00;101468.28;4974882;28;20124;-78
2023/05/15 07:51:29;;;;;;;17.17;12.07;;;;;;;13.44;100.00;101472.34;4971952;28;20408;-79
2023/05/15 07:54:13;;;;;;;18.98;13.20;;;;;;;13.46;100.00;101465.22;4974807;28;20148;-81
2023/05/15 07:56:58;;;;;;;17.85;12.23;;;;;;;13.44;100.00;101470.56;4987294;28;20119;-80
2023/05/15 07:59:43;;;;;;;18.30;14.07;;;;;;;13.54;100.00;101470.16;4973327;28;20046;-80
2023/05/15 08:02:27;;;;;;;18.55;12.98;;;;;;;13.72;100.00;101460.41;4964194;28;20140;-80
2023/05/15 08:05:13;;;;;;;15.68;11.77;;;;;;;13.92;100.00;101469.22;4975633;28;20515;-80
2023/05/15 08:07:58;;;;;;;18.48;12.52;;;;;;;13.97;100.00;101459.22;4971365;28;20128;-80
2023/05/15 08:10:43;;;;;;;18.05;12.00;;;;;;;14.04;100.00;101462.41;4975466;28;20049;-80
2023/05/15 08:13:27;;;;;;;17.45;12.98;;;;;;;14.09;100.00;101465.72;4974579;28;20060;-80
2023/05/15 08:16:11;;;;;;;20.33;13.60;;;;;;;14.03;100.00;101461.56;4986645;28;20807;-81
2023/05/15 08:19:00;;;;;;;18.88;12.82;;;;;;;14.10;100.00;101462.97;4990065;28;20135;-81
2023/05/15 08:21:44;;;;;;;17.20;12.05;;;;;;;14.19;100.00;101466.97;4960701;28;20185;-80
2023/05/15 08:24:28;;;;;;;15.10;10.75;;;;;;;14.25;100.00;101469.34;4971851;28;20077;-81
2023/05/15 08:27:12;;;;;;;17.88;12.60;;;;;;;14.30;100.00;101462.88;4975198;28;20131;-80
2023/05/15 08:29:56;;;;;;;19.05;11.90;;;;;;;14.30;100.00;101466.44;4973632;28;20053;-81
2023/05/15 08:32:42;;;;;;;14.38;10.38;;;;;;;14.32;100.00;101471.69;4975588;28;20539;-81
2023/05/15 08:35:26;;;;;;;14.55;10.65;;;;;;;14.34;100.00;101464.47;4979314;28;20049;-80
2023/05/15 08:38:10;;;;;;;14.82;10.52;;;;;;;14.32;100.00;101461.88;4980701;28;20061;-80
2023/05/15 08:40:59;;;;;;;15.10;10.40;;;;;;;14.37;100.00;101464.28;4970359;28;20447;-80
2023/05/15 08:43:44;;;;;;;13.77;10.43;;;;;;;14.48;100.00;101461.94;4980002;28;20589;-81
2023/05/15 08:46:30;;;;;;;15.23;9.90;;;;;;;14.62;100.00;101463.03;4977870;28;20188;-81
2023/05/15 08:49:42;;;;;;;13.65;9.02;;;;;;;14.64;100.00;101464.66;4977372;28;20049;-81
2023/05/15 08:52:32;;;;;;;14.30;10.05;;;;;;;14.71;100.00;101459.03;4976816;28;20519;-81
2023/05/15 08:55:16;;;;;;;11.88;9.50;;;;;;;14.78;100.00;101455.97;4972277;28;21654;-80
2023/05/15 08:58:01;;;;;;;10.55;9.05;;;;;;;14.78;100.00;101457.78;4978312;28;20060;-80
2023/05/15 09:00:45;;;;;;;11.45;8.52;;;;;;;14.78;100.00;101458.63;4980632;28;20048;-80
2023/05/15 09:03:30;;;;;;;9.52;7.80;;;;;;;14.88;100.00;101469.66;4974725;28;20540;-79
2023/05/15 09:06:14;;;;;;;12.52;8.38;;;;;;;14.94;100.00;101457.81;4979133;28;20052;-78
2023/05/15 09:09:00;;;;;;;10.80;8.18;;;;;;;14.96;100.00;101458.59;4978769;28;20061;-79
2023/05/15 09:11:45;;;;;;;9.95;7.60;;;;;;;14.95;100.00;101456.88;4989644;28;20116;-79
2023/05/15 09:14:30;;;;;;;10.90;7.60;;;;;;;14.93;100.00;101454.28;4978926;28;21316;-79
2023/05/15 09:17:14;;;;;;;11.60;8.38;;;;;;;14.96;100.00;101455.03;4977480;28;20056;-81
2023/05/15 09:19:58;;;;;;;9.50;8.00;;;;;;;14.97;100.00;101449.63;4976915;28;20068;-79
2023/05/15 09:22:42;;;;;;;10.90;8.27;;;;;;;14.99;100.00;101457.56;4979935;28;20052;-78
2023/05/15 09:25:39;;;;;;;9.15;7.88;;;;;;;14.92;100.00;101457.03;4972514;28;20096;-79
2023/05/15 09:28:26;;;;;;;12.80;8.80;;;;;;;14.83;100.00;101460.19;4975559;28;20048;-76
2023/05/15 09:31:11;;;;;;;12.18;9.52;;;;;;;14.77;100.00;101466.72;4978362;28;20717;-78
2023/05/15 09:34:05;;;;;;;12.23;10.07;;;;;;;14.63;100.00;101464.75;4971977;28;20161;-78
2023/05/15 09:36:49;;;;;;;14.77;10.35;;;;;;;14.55;100.00;101466.97;4960313;28;20136;-76
2023/05/15 09:39:41;;;;;;;12.80;9.52;;;;;;;14.49;100.00;101471.66;4972930;28;21500;-75
2023/05/15 09:42:25;;;;;;;16.63;10.27;;;;;;;14.45;100.00;101472.78;4974600;28;20120;-75
2023/05/15 09:45:16;;;;;;;13.02;9.80;;;;;;;14.33;100.00;101468.09;4980186;28;20052;-75
2023/05/15 09:48:05;;;;;;;14.02;10.07;;;;;;;14.30;100.00;101473.53;4988706;28;20048;-75
2023/05/15 09:50:48;;;;;;;13.00;9.60;;;;;;;14.32;100.00;101472.53;4983963;28;20045;-76
2023/05/15 09:53:33;;;;;;;13.48;9.88;;;;;;;14.38;100.00;101471.34;4978060;28;20064;-75
2023/05/15 09:56:17;;;;;;;10.00;8.27;;;;;;;14.38;100.00;101482.88;4976681;28;20259;-75
2023/05/15 09:59:02;;;;;;;13.77;9.18;;;;;;;14.40;100.00;101475.66;4976875;28;20048;-76
2023/05/15 10:01:48;;;;;;;10.52;8.32;;;;;;;14.39;100.00;101473.09;4977358;28;20112;-75
2023/05/15 10:04:41;;;;;;;12.13;8.68;;;;;;;14.39;100.00;101478.41;4976396;28;20184;-74
2023/05/15 10:07:35;;;;;;;11.38;8.73;;;;;;;14.45;100.00;101471.91;4978228;28;20097;-74
2023/05/15 10:10:19;;;;;;;12.82;7.88;;;;;;;14.50;100.00;101468.03;4978132;28;20056;-74
2023/05/15 10:13:08;;;;;;;9.68;7.68;;;;;;;14.51;100.00;101468.91;4974074;28;20045;-75
2023/05/15 10:15:53;;;;;;;11.45;7.60;;;;;;;14.63;100.00;101472.75;4980819;28;20662;-74
2023/05/15 10:18:37;;;;;;;12.13;8.77;;;;;;;14.64;100.00;101470.00;4977689;28;20772;-75
2023/05/15 10:21:22;;;;;;;10.30;8.07;;;;;;;14.64;100.00;101470.00;4980720;28;20105;-75
2023/05/15 10:24:07;;;;;;;8.95;8.00;;;;;;;14.61;100.00;101475.47;4975496;28;20049;-75
2023/05/15 10:26:54;;;;;;;9.90;7.63;;;;;;;14.69;100.00;101471.53;4977333;28;20520;-75
2023/05/15 10:29:38;;;;;;;9.23;8.00;;;;;;;14.78;100.00;101479.94;4976207;28;20068;-75
2023/05/15 10:32:23;;;;;;;11.23;8.32;;;;;;;14.83;100.00;101476.19;4975902;28;21676;-81
2023/05/15 10:35:15;;;;;;;11.35;8.68;;;;;;;14.82;100.00;101479.81;4978058;28;20119;-80
2023/05/15 10:38:03;;;;;;;12.18;8.93;;;;;;;14.83;100.00;101477.06;4976493;28;20061;-84
2023/05/15 10:40:48;;;;;;;11.90;8.35;;;;;;;14.85;100.00;101484.94;4969459;28;20743;-84
2023/05/15 10:43:35;;;;;;;8.88;7.78;;;;;;;14.92;100.00;101484.56;4974167;28;20130;-84
2023/05/15 10:46:22;;;;;;;9.73;7.95;;;;;;;15.00;100.00;101478.81;4978512;28;20049;-83
2023/05/15 10:49:06;;;;;;;12.05;7.90;;;;;;;15.05;100.00;101486.56;4962697;28;20081;-84
2023/05/15 10:51:51;;;;;;;10.82;8.15;;;;;;;15.12;100.00;101479.94;4972099;28;20076;-82
2023/05/15 10:54:36;;;;;;;12.23;8.50;;;;;;;15.19;100.00;101480.47;4976264;28;21948;-86
2023/05/15 10:57:20;;;;;;;12.07;7.53;;;;;;;15.20;100.00;101474.19;4961793;28;20829;-86
2023/05/15 11:00:25;;;;;;;10.55;7.38;;;;;;;15.15;100.00;101481.59;4974452;28;20057;-85
2023/05/15 11:03:36;;;;;;;10.73;7.00;;;;;;;15.04;100.00;101479.50;4978910;28;20049;-86
2023/05/15 11:06:29;;;;;;;10.32;7.10;;;;;;;14.96;100.00;101484.38;4976995;28;20056;-85
2023/05/15 11:09:26;;;;;;;11.45;7.20;;;;;;;14.88;100.00;101484.81;4981008;28;20072;-86
2023/05/15 11:12:13;;;;;;;10.10;7.43;;;;;;;14.75;100.00;101482.78;4978369;28;20501;-86
2023/05/15 11:14:57;;;;;;;8.63;7.22;;;;;;;14.61;100.00;101486.13;4986181;28;20570;-85
2023/05/15 11:18:01;;;;;;;10.23;7.78;;;;;;;14.56;100.00;101485.53;4991906;28;20093;-86
2023/05/15 11:20:48;;;;;;;8.88;7.18;;;;;;;14.51;100.00;101483.09;4966772;28;20092;-85
2023/05/15 11:23:39;;;;;;;8.35;7.22;;;;;;;14.32;100.00;101483.19;4974280;28;20168;-85
2023/05/15 11:26:33;;;;;;;8.10;6.53;;;;;;;14.17;100.00;101484.81;4977784;28;21479;-86
2023/05/15 11:29:18;;;;;;;10.65;8.00;;;;;;;14.13;100.00;101480.59;4970807;28;20045;-87
2023/05/15 11:32:02;;;;;;;8.57;7.15;;;;;;;14.05;100.00;101488.13;4975274;28;20151;-84
2023/05/15 11:34:48;;;;;;;8.27;6.53;;;;;;;13.99;100.00;101487.47;4981384;28;20065;-85
2023/05/15 11:37:36;;;;;;;9.18;6.10;;;;;;;13.95;100.00;101483.22;4975424;28;20143;-83
2023/05/15 11:40:33;;;;;;;7.43;6.03;;;;;;;13.90;100.00;101484.41;4971535;28;20128;-85
2023/05/15 11:43:24;;;;;;;7.18;6.03;;;;;;;13.87;100.00;101488.09;4965075;28;20053;-86
2023/05/15 11:46:09;;;;;;;8.63;6.60;;;;;;;13.90;100.00;101485.25;4973508;28;20048;-85
2023/05/15 11:48:53;;;;;;;9.05;6.13;;;;;;;13.92;100.00;101480.75;4975558;28;20092;-85
2023/05/15 11:51:42;;;;;;;9.73;6.32;;;;;;;13.91;100.00;101479.03;4974880;28;20073;-85
2023/05/15 11:54:26;;;;;;;8.95;6.22;;;;;;;13.85;100.00;101479.31;4972144;28;20921;-88
2023/05/15 11:57:11;;;;;;;8.25;5.72;;;;;;;13.85;100.00;101484.66;4975895;28;20057;-86
2023/05/15 11:59:55;;;;;;;7.63;5.70;;;;;;;13.74;100.00;101476.31;4963720;28;20095;-84
2023/05/15 12:02:39;;;;;;;10.23;6.00;;;;;;;13.70;100.00;101476.47;4973277;28;20255;-86
2023/05/15 12:05:23;;;;;;;7.90;5.85;;;;;;;13.69;100.00;101479.19;4973456;28;20404;-85
2023/05/15 12:08:14;;;;;;;7.47;6.22;;;;;;;13.67;100.00;101471.28;4985996;28;20092;-85
2023/05/15 12:10:59;;;;;;;7.40;6.25;;;;;;;13.68;100.00;101474.81;4972415;28;20048;-84
2023/05/15 12:13:43;;;;;;;6.90;6.18;;;;;;;13.74;100.00;101476.31;4977075;28;20139;-86
2023/05/15 12:16:40;;;;;;;10.25;6.18;;;;;;;13.75;100.00;101468.25;4977307;28;20052;-87
2023/05/15 12:19:33;;;;;;;12.52;7.03;;;;;;;13.77;100.00;101479.69;4977715;28;20113;-87
2023/05/15 12:22:18;;;;;;;9.55;6.95;;;;;;;13.78;100.00;101476.09;4975429;28;20052;-86
2023/05/15 12:25:02;;;;;;;12.77;8.52;;;;;;;13.71;100.00;101474.66;4974730;28;20662;-86
2023/05/15 12:27:46;;;;;;;12.90;8.30;;;;;;;13.63;100.00;101475.06;4975394;28;20106;-86
2023/05/15 12:30:34;;;;;;;14.77;9.85;;;;;;;13.55;100.00;101471.88;4975560;28;20338;-87
2023/05/15 12:33:22;;;;;;;13.52;8.77;;;;;;;13.54;100.00;101471.03;4973472;28;20080;-85